createdAt,value
2023-03-04T00:00:20.820Z,97476.66
2023-03-04T00:05:23.027Z,97588.88
2023-03-04T00:10:25.312Z,97122.88
2023-03-04T00:15:27.585Z,97071.84
2023-03-04T00:20:29.837Z,97433.91
2023-03-04T00:25:32.204Z,96930.50
2023-03-04T00:30:34.527Z,97608.81
2023-03-04T00:35:37.003Z,97087.41
2023-03-04T00:40:39.338Z,97061.03
2023-03-04T00:45:41.673Z,96928.13
2023-03-04T00:50:44.545Z,97448.69
2023-03-04T00:55:46.705Z,97081.88
2023-03-04T01:00:48.997Z,97199.44
2023-03-04T01:05:51.355Z,97187.78
2023-03-04T01:10:53.545Z,97057.31
2023-03-04T01:15:56.286Z,97521.13
2023-03-04T01:20:58.607Z,97481.69
2023-03-04T01:26:00.951Z,96998.63
2023-03-04T01:31:04.295Z,96927.88
2023-03-04T01:36:07.017Z,96967.75
2023-03-04T01:41:12.634Z,96862.19
2023-03-04T01:46:15.426Z,97461.97
2023-03-04T01:51:19.524Z,97429.16
2023-03-04T01:56:39.598Z,97423.38
2023-03-04T02:01:53.610Z,97422.41
2023-03-04T02:12:11.223Z,97319.84
2023-03-04T02:17:13.654Z,97323.56
2023-03-04T02:22:15.941Z,97400.53
2023-03-04T02:27:19.453Z,97476.13
2023-03-04T02:37:38.244Z,97324.38
2023-03-04T02:42:40.905Z,97423.56
2023-03-04T02:47:43.135Z,97504.56
2023-03-04T02:52:45.978Z,97439.41
2023-03-04T02:57:48.278Z,97422.00
2023-03-04T03:02:50.926Z,97401.44
2023-03-04T03:07:53.610Z,97003.03
2023-03-04T03:12:55.996Z,97383.19
2023-03-04T03:17:58.609Z,97401.50
2023-03-04T03:23:00.762Z,97448.13
2023-03-04T03:28:02.980Z,97358.53
2023-03-04T03:33:14.424Z,97361.69
2023-03-04T03:38:17.459Z,97420.75
2023-03-04T03:43:20.113Z,97415.59
2023-03-04T03:48:22.383Z,97401.03
2023-03-04T03:53:24.635Z,97276.88
2023-03-04T03:58:27.387Z,97322.41
2023-03-04T04:03:29.825Z,96795.06
2023-03-04T04:08:33.642Z,97165.06
2023-03-04T04:13:38.072Z,96926.31
2023-03-04T04:18:41.384Z,97026.66
2023-03-04T04:23:43.813Z,97230.84
2023-03-04T04:28:46.060Z,97347.78
2023-03-04T04:33:48.236Z,97272.22
2023-03-04T04:38:50.454Z,97115.44
2023-03-04T04:43:52.789Z,97354.88
2023-03-04T04:48:55.013Z,96618.50
2023-03-04T04:53:57.356Z,97030.47
2023-03-04T04:59:02.091Z,97037.44
2023-03-04T05:04:04.704Z,97288.69
2023-03-04T05:09:07.438Z,97087.34
2023-03-04T05:14:09.626Z,97303.50
2023-03-04T05:19:11.904Z,97336.22
2023-03-04T05:24:15.445Z,97131.75
2023-03-04T05:29:17.730Z,97332.03
2023-03-04T05:34:20.136Z,97314.75
2023-03-04T05:44:31.023Z,97284.13
2023-03-04T05:49:33.395Z,96816.13
2023-03-04T05:54:35.659Z,97229.91
2023-03-04T05:59:39.785Z,97055.41
2023-03-04T06:04:42.155Z,96864.06
2023-03-04T06:09:48.534Z,96841.50
2023-03-04T06:14:51.381Z,96670.75
2023-03-04T06:19:53.778Z,96772.41
2023-03-04T06:24:56.019Z,96993.31
2023-03-04T06:29:58.318Z,97288.97
2023-03-04T06:35:00.573Z,97224.50
2023-03-04T06:40:16.396Z,97228.78
2023-03-04T06:45:24.984Z,97158.59
2023-03-04T06:50:27.391Z,97147.66
2023-03-04T06:55:29.686Z,97245.75
2023-03-04T07:00:32.065Z,97261.25
2023-03-04T07:05:34.383Z,96668.06
2023-03-04T07:10:37.088Z,96598.78
2023-03-04T07:15:39.471Z,97151.97
2023-03-04T07:20:41.763Z,97098.81
2023-03-04T07:25:44.057Z,96874.38
2023-03-04T07:30:47.106Z,97190.13
2023-03-04T07:35:49.376Z,96840.69
2023-03-04T07:40:58.610Z,97034.69
2023-03-04T07:46:07.364Z,97099.16
2023-03-04T07:51:12.657Z,96682.06
2023-03-04T07:56:27.390Z,97160.38
2023-03-04T08:01:31.128Z,97141.53
2023-03-04T08:06:34.380Z,97009.09
2023-03-04T08:11:37.914Z,97073.69
2023-03-04T08:16:40.350Z,96811.88
2023-03-04T08:21:42.691Z,97141.66
2023-03-04T08:26:48.152Z,97101.28
2023-03-04T08:31:51.673Z,97088.47
2023-03-04T08:36:54.288Z,96955.38
2023-03-04T08:41:56.565Z,96844.69
2023-03-04T08:46:59.013Z,97006.28
2023-03-04T08:52:01.350Z,97073.31
2023-03-04T08:57:04.818Z,96905.03
2023-03-04T09:02:07.549Z,96738.72
2023-03-04T09:07:10.176Z,96953.31
2023-03-04T09:12:12.707Z,96937.03
2023-03-04T09:17:15.157Z,96513.72
2023-03-04T09:22:17.568Z,96831.56
2023-03-04T09:27:19.912Z,96930.94
2023-03-04T09:32:22.283Z,96620.16
2023-03-04T09:37:24.612Z,96537.25
2023-03-04T09:42:42.556Z,97000.72
2023-03-04T09:47:45.336Z,96799.28
2023-03-04T09:53:04.203Z,96515.25
2023-03-04T10:04:21.528Z,96969.06
2023-03-04T10:09:28.380Z,96347.84
2023-03-04T10:20:30.291Z,96765.22
2023-03-04T10:25:33.441Z,96775.47
2023-03-04T10:30:57.989Z,96909.94
2023-03-04T10:36:00.331Z,96905.69
2023-03-04T10:41:21.844Z,96476.16
2023-03-04T10:46:25.426Z,96638.59
2023-03-04T10:51:30.217Z,96840.59
2023-03-04T10:56:43.092Z,96822.59
2023-03-04T11:01:45.353Z,96695.94
2023-03-04T11:06:49.253Z,96448.88
2023-03-04T11:11:55.380Z,96264.38
2023-03-04T11:17:02.460Z,96481.38
2023-03-04T11:22:05.145Z,96605.28
2023-03-04T11:27:15.796Z,96689.97
2023-03-04T11:32:23.390Z,96673.69
2023-03-04T11:37:46.191Z,96814.00
2023-03-04T11:42:49.875Z,96803.72
2023-03-04T11:48:13.353Z,96801.16
2023-03-04T11:53:27.369Z,96792.59
2023-03-04T11:58:44.600Z,96779.75
2023-03-04T12:04:05.212Z,96774.59
2023-03-04T12:09:26.668Z,96563.41
2023-03-04T12:14:32.072Z,96760.03
2023-03-04T12:19:48.636Z,96718.97
2023-03-04T12:24:58.848Z,96738.63
2023-03-04T12:36:17.020Z,96722.34
2023-03-04T12:41:52.904Z,96633.41
2023-03-04T12:47:18.186Z,96620.56
2023-03-04T12:52:58.634Z,96711.19
2023-03-04T12:58:01.473Z,96394.31
2023-03-04T13:03:29.281Z,96523.22
2023-03-04T13:08:40.740Z,96670.97
2023-03-04T13:13:43.643Z,96644.53
2023-03-04T13:18:45.996Z,96506.91
2023-03-04T13:23:48.398Z,96256.06
2023-03-04T13:28:57.282Z,96602.59
2023-03-04T13:34:01.053Z,96385.75
2023-03-04T13:39:28.184Z,96607.63
2023-03-04T13:44:45.541Z,96476.13
2023-03-04T13:49:47.875Z,96503.47
2023-03-04T13:54:50.289Z,96540.16
2023-03-04T13:59:56.513Z,96581.13
2023-03-04T14:05:00.821Z,96597.34
2023-03-04T14:10:14.332Z,96525.63
2023-03-04T14:15:21.919Z,96577.63
2023-03-04T14:20:31.610Z,96574.22
2023-03-04T14:25:36.659Z,96578.44
2023-03-04T14:30:43.694Z,96414.63
2023-03-04T14:35:48.826Z,96277.28
2023-03-04T14:41:08.245Z,96219.34
2023-03-04T14:46:14.136Z,96157.97
2023-03-04T14:51:52.799Z,96517.78
2023-03-04T14:56:55.343Z,96538.31
2023-03-04T15:02:33.558Z,96526.28
2023-03-04T15:07:37.338Z,96522.88
2023-03-04T15:12:39.590Z,96511.75
2023-03-04T15:17:42.899Z,96280.63
2023-03-04T15:22:45.494Z,96498.03
2023-03-04T15:27:48.780Z,96499.78
2023-03-04T15:32:51.037Z,96427.22
2023-03-04T15:37:55.148Z,96455.44
2023-03-04T15:43:00.409Z,96394.06
2023-03-04T15:54:00.241Z,96379.59
2023-03-04T15:59:13.672Z,96011.47
2023-03-04T16:04:17.343Z,96058.34
2023-03-04T16:09:21.493Z,96047.19
2023-03-04T16:14:23.800Z,96284.06
2023-03-04T16:19:26.079Z,96320.63
2023-03-04T16:24:30.585Z,95905.16
2023-03-04T16:29:32.825Z,95898.34
2023-03-04T16:34:36.323Z,96276.19
2023-03-04T16:39:39.211Z,95792.91
2023-03-04T16:44:43.410Z,96017.31
2023-03-04T16:49:48.513Z,96139.16
2023-03-04T16:54:51.272Z,96257.41
2023-03-04T16:59:55.246Z,96277.06
2023-03-04T17:04:59.595Z,96412.50
2023-03-04T17:10:01.849Z,96272.72
2023-03-04T17:15:08.071Z,96417.63
2023-03-04T17:20:14.041Z,96004.53
2023-03-04T17:25:29.721Z,95967.97
2023-03-04T17:30:40.889Z,95962.13
2023-03-04T17:35:43.426Z,96209.69
2023-03-04T17:40:47.567Z,96250.59
2023-03-04T17:45:49.868Z,95673.97
2023-03-04T17:50:52.807Z,96203.78
2023-03-04T17:56:03.286Z,96062.47
2023-03-04T18:01:13.565Z,95878.75
2023-03-04T18:06:17.366Z,95869.41
2023-03-04T18:11:21.957Z,96244.72
2023-03-04T18:16:26.983Z,95821.78
2023-03-04T18:21:33.944Z,96290.78
2023-03-04T18:26:36.414Z,95865.16
2023-03-04T18:31:38.760Z,95972.34
2023-03-04T18:36:41.304Z,96326.56
2023-03-04T18:41:57.578Z,96243.88
2023-03-04T18:47:00.204Z,96334.22
2023-03-04T18:52:02.426Z,95741.06
2023-03-04T18:57:09.535Z,95833.72
2023-03-04T19:02:25.744Z,96029.31
2023-03-04T19:07:28.696Z,96033.59
2023-03-04T19:12:34.284Z,95539.91
2023-03-04T19:17:39.848Z,96432.38
2023-03-04T19:22:42.934Z,95575.50
2023-03-04T19:27:45.572Z,96203.19
2023-03-04T19:32:48.130Z,95485.50
2023-03-04T19:37:50.580Z,95923.88
2023-03-04T19:42:58.650Z,95912.81
2023-03-04T19:48:03.274Z,95802.28
2023-03-04T19:53:05.509Z,96355.75
2023-03-04T19:58:07.763Z,96330.19
2023-03-04T20:03:10.040Z,95830.34
2023-03-04T20:08:12.257Z,96238.94
2023-03-04T20:13:14.516Z,96170.81
2023-03-04T20:18:16.803Z,95899.22
2023-03-04T20:23:20.565Z,95877.09
2023-03-04T20:28:23.613Z,96094.97
2023-03-04T20:33:25.841Z,96249.25
2023-03-04T20:38:28.162Z,95711.31
2023-03-04T20:43:31.478Z,95904.28
2023-03-04T20:48:34.108Z,96385.63
2023-03-04T20:53:36.383Z,96021.75
2023-03-04T20:58:38.722Z,95835.44
2023-03-04T21:03:42.407Z,95904.31
2023-03-04T21:08:45.133Z,96321.66
2023-03-04T21:13:54.185Z,96257.72
2023-03-04T21:18:56.608Z,96274.78
2023-03-04T21:24:00.717Z,96216.84
2023-03-04T21:29:06.069Z,96089.88
2023-03-04T21:34:18.271Z,95933.19
2023-03-04T21:39:22.462Z,95816.59
2023-03-04T21:44:28.493Z,96262.03
2023-03-04T21:49:31.085Z,96100.94
2023-03-04T21:54:33.434Z,96228.78
2023-03-04T21:59:35.837Z,96271.44
2023-03-04T22:04:38.085Z,96118.00
2023-03-04T22:09:40.517Z,95683.13
2023-03-04T22:14:42.682Z,96230.50
2023-03-04T22:19:44.979Z,96061.75
2023-03-04T22:24:47.170Z,95912.75
2023-03-04T22:29:49.449Z,96323.47
2023-03-04T22:34:51.592Z,96382.31
2023-03-04T22:39:53.860Z,96382.34
2023-03-04T22:44:56.318Z,96013.25
2023-03-04T22:49:58.528Z,95809.00
2023-03-04T22:55:00.804Z,96262.91
2023-03-04T23:00:15.082Z,96331.13
2023-03-04T23:05:18.908Z,95808.16
2023-03-04T23:10:23.305Z,95841.22
2023-03-04T23:15:25.565Z,96130.78
2023-03-04T23:20:27.863Z,96265.44
2023-03-04T23:25:30.043Z,96304.69
2023-03-04T23:30:34.876Z,95838.72
2023-03-04T23:35:37.159Z,96418.19
2023-03-04T23:40:39.709Z,95822.56
2023-03-04T23:45:41.943Z,95786.03
2023-03-04T23:50:51.178Z,95910.16
2023-03-04T23:55:53.563Z,95987.66
